Date,TemperatureHighF,TemperatureAvgF,TemperatureLowF,DewpointHighF,DewpointAvgF,DewpointLowF,HumidityHigh,HumidityAvg,HumidityLow,PressureMaxIn,PressureMinIn,WindSpeedMaxMPH,WindSpeedAvgMPH,GustSpeedMaxMPH,PrecipitationSumIn
2013-1-1,44,42,38,-100,-100,-100,0,0,100,0.00,40.00,0,-999,0,0.00
2013-1-2,35,30,24,-100,-100,-100,0,0,100,0.00,40.00,0,-999,0,0.00
2013-1-3,34,28,20,-100,-100,-100,0,0,100,0.00,40.00,0,-999,0,0.00
2013-1-4,39,32,23,-100,-100,-100,0,0,100,0.00,40.00,0,-999,0,0.00
2013-1-5,41,32,26,-100,-100,-100,0,0,100,0.00,40.00,0,-999,0,0.00
2013-1-6,50,36,29,-100,-100,-100,0,0,100,0.00,40.00,0,-999,0,0.00
2013-1-7,47,35,25,-100,-100,-100,0,0,100,0.00,40.00,0,-999,0,0.00
2013-1-8,50,35,21,-100,-100,-100,0,0,100,0.00,40.00,0,-999,0,0.00
2013-1-9,55,43,30,-100,-100,-100,0,0,100,0.00,40.00,0,-999,0,0.00
2013-1-10,51,42,31,-100,-100,-100,0,0,100,0.00,40.00,0,-999,0,0.00
2013-1-11,53,41,28,-100,-100,-100,0,0,100,0.00,40.00,0,-999,0,0.00
2013-1-12,54,48,45,-100,-100,-100,0,0,100,0.00,40.00,0,-999,0,0.00
2013-1-13,54,48,42,-100,-100,-100,0,0,100,0.00,40.00,0,-999,0,0.00
2013-1-14,60,55,47,-100,-100,-100,0,0,100,0.00,40.00,0,-999,0,0.00
2013-1-15,44,39,35,-100,-100,-100,0,0,100,0.00,40.00,0,-999,0,0.00
2013-1-16,41,38,35,-100,-100,-100,0,0,100,0.00,40.00,0,-999,0,0.00
2013-1-17,42,40,36,-100,-100,-100,0,0,100,0.00,40.00,0,-999,0,0.00
2013-1-18,36,31,24,-100,-100,-100,0,0,100,0.00,40.00,0,-999,0,0.00
2013-1-19,52,38,24,-100,-100,-100,0,0,100,0.00,40.00,0,-999,0,0.00
2013-1-20,57,46,36,-100,-100,-100,0,0,100,0.00,40.00,0,-999,0,0.00
2013-1-21,38,32,28,-100,-100,-100,0,0,100,0.00,40.00,0,-999,0,0.00
2013-1-22,27,21,15,-100,-100,-100,0,0,100,0.00,40.00,0,-999,0,0.00
2013-1-23,22,15,7,-100,-100,-100,0,0,100,0.00,40.00,0,-999,0,0.00
2013-1-24,25,19,11,-100,-100,-100,0,0,100,0.00,40.00,0,-999,0,0.00
2013-1-25,24,16,7,-100,-100,-100,0,0,100,0.00,40.00,0,-999,0,0.00
2013-1-26,29,19,8,-100,-100,-100,0,0,100,0.00,40.00,0,-999,0,0.00
2013-1-27,35,19,5,-100,-100,-100,0,0,100,0.00,40.00,0,-999,0,0.00
2013-1-28,39,30,15,-100,-100,-100,0,0,100,0.00,40.00,0,-999,0,0.00
2013-1-29,56,42,32,-100,-100,-100,0,0,100,0.00,40.00,0,-999,0,0.00
2013-1-30,67,54,41,-100,-100,-100,0,0,100,0.00,40.00,0,-999,0,0.00
2013-1-31,48,41,31,-100,-100,-100,0,0,100,0.00,40.00,0,-999,0,0.00
2013-2-1,32,28,21,-100,-100,-100,0,0,100,0.00,40.00,0,-999,0,0.00
2013-2-2,29,23,11,-100,-100,-100,0,0,100,0.00,40.00,0,-999,0,0.00
2013-2-3,35,27,22,-100,-100,-100,0,0,100,0.00,40.00,0,-999,0,0.00
2013-2-4,31,28,22,-100,-100,-100,0,0,100,0.00,40.00,0,-999,0,0.00
2013-2-5,41,34,29,-100,-100,-100,0,0,100,0.00,40.00,0,-999,0,0.00
2013-2-6,41,32,24,-100,-100,-100,0,0,100,0.00,40.00,0,-999,0,0.00
2013-2-7,39,31,20,-100,-100,-100,0,0,100,0.00,40.00,0,-999,0,0.00
2013-2-8,45,39,33,-100,-100,-100,0,0,100,0.00,40.00,0,-999,0,0.00
2013-2-9,35,31,26,-100,-100,-100,0,0,100,0.00,40.00,0,-999,0,0.00
2013-2-10,40,29,17,-100,-100,-100,0,0,100,0.00,40.00,0,-999,0,0.00
2013-2-11,55,47,32,-100,-100,-100,0,0,100,0.00,40.00,0,-999,0,0.00
2013-2-12,50,43,31,-100,-100,-100,0,0,100,0.00,40.00,0,-999,0,0.00
2013-2-13,44,34,25,-100,-100,-100,0,0,100,0.00,40.00,0,-999,0,0.00
2013-2-14,46,36,30,-100,-100,-100,0,0,100,0.00,40.00,0,-999,0,0.00
2013-2-15,56,40,27,-100,-100,-100,0,0,100,0.00,40.00,0,-999,0,0.00
2013-2-16,41,37,30,-100,-100,-100,0,0,100,0.00,40.00,0,-999,0,0.00
2013-2-17,32,29,25,-100,-100,-100,0,0,100,0.00,40.00,0,-999,0,0.00
2013-2-18,36,27,20,-100,-100,-100,0,0,100,0.00,40.00,0,-999,0,0.00
2013-2-19,49,42,26,-100,-100,-100,0,0,100,0.00,40.00,0,-999,0,0.00
2013-2-20,38,33,26,-100,-100,-100,0,0,100,0.00,40.00,0,-999,0,0.00
2013-2-21,36,32,23,-100,-100,-100,0,0,100,0.00,40.00,0,-999,0,0.00
2013-2-22,38,32,25,-100,-100,-100,0,0,100,0.00,40.00,0,-999,0,0.00
2013-2-23,48,42,34,-100,-100,-100,0,0,100,0.00,40.00,0,-999,0,0.00
2013-2-24,50,41,33,-100,-100,-100,0,0,100,0.00,40.00,0,-999,0,0.00
2013-2-25,46,35,27,-100,-100,-100,0,0,100,0.00,40.00,0,-999,0,0.00
2013-2-26,45,35,24,-100,-100,-100,0,0,100,0.00,40.00,0,-999,0,0.00
2013-2-27,56,49,44,-100,-100,-100,0,0,100,0.00,40.00,0,-999,0,0.00
2013-2-28,46,42,38,-100,-100,-100,0,0,100,0.00,40.00,0,-999,0,0.00
2013-3-1,44,38,30,-100,-100,-100,0,0,100,0.00,40.00,0,-999,0,0.00
2013-3-2,41,35,28,-100,-100,-100,0,0,100,0.00,40.00,0,-999,0,0.00
2013-3-3,38,34,30,-100,-100,-100,0,0,100,0.00,40.00,0,-999,0,0.00
2013-3-4,41,34,31,-100,-100,-100,0,0,100,0.00,40.00,0,-999,0,0.00
2013-3-5,48,35,28,-100,-100,-100,0,0,100,0.00,40.00,0,-999,0,0.00
2013-3-6,40,38,31,-100,-100,-100,0,0,100,0.00,40.00,0,-999,0,0.00
2013-3-7,47,40,34,-100,-100,-100,0,0,100,0.00,40.00,0,-999,0,0.00
2013-3-8,40,35,31,-100,-100,-100,0,0,100,0.00,40.00,0,-999,0,0.00
2013-3-9,59,43,29,-100,-100,-100,0,0,100,0.00,40.00,0,-999,0,0.00
2013-3-10,48,36,25,-100,-100,-100,0,0,100,0.00,40.00,0,-999,0,0.00
2013-3-11,57,45,31,-100,-100,-100,0,0,100,0.00,40.00,0,-999,0,0.00
2013-3-12,56,53,44,-100,-100,-100,0,0,100,0.00,40.00,0,-999,0,0.00
2013-3-13,50,40,31,-100,-100,-100,0,0,100,0.00,40.00,0,-999,0,0.00
2013-3-14,42,36,30,-100,-100,-100,0,0,100,0.00,40.00,0,-999,0,0.00
2013-3-15,51,39,26,-100,-100,-100,0,0,100,0.00,40.00,0,-999,0,0.00
2013-3-16,43,37,31,-100,-100,-100,0,0,100,0.00,40.00,0,-999,0,0.00
2013-3-17,41,36,29,-100,-100,-100,0,0,100,0.00,40.00,0,-999,0,0.00
2013-3-18,45,37,29,-100,-100,-100,0,0,100,0.00,40.00,0,-999,0,0.00
2013-3-19,52,45,36,-100,-100,-100,0,0,100,0.00,40.00,0,-999,0,0.00
2013-3-20,49,40,28,-100,-100,-100,0,0,100,0.00,40.00,0,-999,0,0.00
2013-3-21,38,33,29,-100,-100,-100,0,0,100,0.00,40.00,0,-999,0,0.00
2013-3-22,42,35,27,-100,-100,-100,0,0,100,0.00,40.00,0,-999,0,0.00
2013-3-23,48,35,25,-100,-100,-100,0,0,100,0.00,40.00,0,-999,0,0.00
2013-3-24,46,35,23,-100,-100,-100,0,0,100,0.00,40.00,0,-999,0,0.00
2013-3-25,38,34,32,-100,-100,-100,0,0,100,0.00,40.00,0,-999,0,0.00
2013-3-26,51,40,33,-100,-100,-100,0,0,100,0.00,40.00,0,-999,0,0.00
2013-3-27,52,42,30,-100,-100,-100,0,0,100,0.00,40.00,0,-999,0,0.00
2013-3-28,49,42,32,-100,-100,-100,0,0,100,0.00,40.00,0,-999,0,0.00
2013-3-29,55,42,29,-100,-100,-100,0,0,100,0.00,40.00,0,-999,0,0.00
2013-3-30,58,42,27,-100,-100,-100,0,0,100,0.00,40.00,0,-999,0,0.00
2013-3-31,55,43,29,-100,-100,-100,0,0,100,0.00,40.00,0,-999,0,0.00
2013-4-1,65,52,37,-100,-100,-100,0,0,100,0.00,40.00,0,-999,0,0.00
2013-4-2,47,38,27,-100,-100,-100,0,0,100,0.00,40.00,0,-999,0,0.00
2013-4-3,49,36,24,-100,-100,-100,0,0,100,0.00,40.00,0,-999,0,0.00
2013-4-4,49,38,23,-100,-100,-100,0,0,100,0.00,40.00,0,-999,0,0.00
2013-4-5,62,46,37,-100,-100,-100,0,0,100,0.00,40.00,0,-999,0,0.00
2013-4-6,51,42,34,-100,-100,-100,0,0,100,0.00,40.00,0,-999,0,0.00
2013-4-7,58,45,29,-100,-100,-100,0,0,100,0.00,40.00,0,-999,0,0.00
2013-4-8,62,54,49,-100,-100,-100,0,0,100,0.00,40.00,0,-999,0,0.00
2013-4-9,85,71,59,-100,-100,-100,0,0,100,0.00,40.00,0,-999,0,0.00
2013-4-10,88,76,63,-100,-100,-100,0,0,100,0.00,40.00,0,-999,0,0.00
2013-4-11,75,59,49,-100,-100,-100,0,0,100,0.00,40.00,0,-999,0,0.00
2013-4-12,70,53,48,-100,-100,-100,0,0,100,0.00,40.00,0,-999,0,0.00
2013-4-13,61,52,42,-100,-100,-100,0,0,100,0.00,40.00,0,-999,0,0.00
2013-4-14,63,51,35,-100,-100,-100,0,0,100,0.00,40.00,0,-999,0,0.00
2013-4-15,57,51,47,-100,-100,-100,0,0,100,0.00,40.00,0,-999,0,0.00
2013-4-16,69,58,45,-100,-100,-100,0,0,100,0.00,40.00,0,-999,0,0.00
2013-4-17,71,61,48,-100,-100,-100,0,0,100,0.00,40.00,0,-999,0,0.00
2013-4-18,68,56,45,-100,-100,-100,0,0,100,0.00,40.00,0,-999,0,0.00
2013-4-19,75,66,59,-100,-100,-100,0,0,100,0.00,40.00,0,-999,0,0.00
2013-4-20,64,52,46,-100,-100,-100,0,0,100,0.00,40.00,0,-999,0,0.00
2013-4-21,52,44,33,-100,-100,-100,0,0,100,0.00,40.00,0,-999,0,0.00
2013-4-22,52,43,29,-100,-100,-100,0,0,100,0.00,40.00,0,-999,0,0.00
2013-4-23,51,46,44,-100,-100,-100,0,0,100,0.00,40.00,0,-999,0,0.00
2013-4-24,66,52,35,-100,-100,-100,0,0,100,0.00,40.00,0,-999,0,0.00
2013-4-25,66,55,43,-100,-100,-100,0,0,100,0.00,40.00,0,-999,0,0.00
2013-4-26,67,53,35,-100,-100,-100,0,0,100,0.00,40.00,0,-999,0,0.00
2013-4-27,67,52,32,-100,-100,-100,0,0,100,0.00,40.00,0,-999,0,0.00
2013-4-28,68,53,35,-100,-100,-100,0,0,100,0.00,40.00,0,-999,0,0.00
2013-4-29,57,55,53,-100,-100,-100,0,0,100,0.00,40.00,0,-999,0,0.00
2013-4-30,66,59,50,-100,-100,-100,0,0,100,0.00,40.00,0,-999,0,0.00
2013-5-1,65,53,39,-100,-100,-100,0,0,100,0.00,40.00,0,-999,0,0.00
2013-5-2,66,52,36,-100,-100,-100,0,0,100,0.00,40.00,0,-999,0,0.00
2013-5-3,60,51,39,-100,-100,-100,0,0,100,0.00,40.00,0,-999,0,0.00
2013-5-4,66,53,41,-100,-100,-100,0,0,100,0.00,40.00,0,-999,0,0.00
2013-5-5,60,50,43,-100,-100,-100,0,0,100,0.00,40.00,0,-999,0,0.00
2013-5-6,62,53,42,-100,-100,-100,0,0,100,0.00,40.00,0,-999,0,0.00
2013-5-7,62,57,53,-100,-100,-100,0,0,100,0.00,40.00,0,-999,0,0.00
2013-5-8,71,62,56,-100,-100,-100,0,0,100,0.00,40.00,0,-999,0,0.00
2013-5-9,73,63,56,-100,-100,-100,0,0,100,0.00,40.00,0,-999,0,0.00
2013-5-10,81,68,52,-100,-100,-100,0,0,100,0.00,40.00,0,-999,0,0.00
2013-5-11,75,66,62,-100,-100,-100,0,0,100,0.00,40.00,0,-999,0,0.00
2013-5-12,67,60,48,-100,-100,-100,0,0,100,0.00,40.00,0,-999,0,0.00
2013-5-13,58,49,37,-100,-100,-100,0,0,100,0.00,40.00,0,-999,0,0.00
2013-5-14,61,48,32,-100,-100,-100,0,0,100,0.00,40.00,0,-999,0,0.00
2013-5-15,76,61,50,-100,-100,-100,0,0,100,0.00,40.00,0,-999,0,0.00
2013-5-16,82,68,58,-100,-100,-100,0,0,100,0.00,40.00,0,-999,0,0.00
2013-5-17,78,64,52,-100,-100,-100,0,0,100,0.00,40.00,0,-999,0,0.00
2013-5-18,68,61,54,-100,-100,-100,0,0,100,0.00,40.00,0,-999,0,0.00
2013-5-19,63,61,57,-100,-100,-100,0,0,100,0.00,40.00,0,-999,0,0.00
2013-5-20,81,70,63,-100,-100,-100,0,0,100,0.00,40.00,0,-999,0,0.00
2013-5-21,82,74,65,-100,-100,-100,0,0,100,0.00,40.00,0,-999,0,0.00
2013-5-22,82,73,68,-100,-100,-100,0,0,100,0.00,40.00,0,-999,0,0.00
2013-5-23,79,72,67,-100,-100,-100,0,0,100,0.00,40.00,0,-999,0,0.00
2013-5-24,67,58,48,-100,-100,-100,0,0,100,0.00,40.00,0,-999,0,0.00
2013-5-25,63,53,43,-100,-100,-100,0,0,100,0.00,40.00,0,-999,0,0.00
2013-5-26,69,55,39,-100,-100,-100,0,0,100,0.00,40.00,0,-999,0,0.00
2013-5-27,72,56,38,-100,-100,-100,0,0,100,0.00,40.00,0,-999,0,0.00
2013-5-28,64,59,50,-100,-100,-100,0,0,100,0.00,40.00,0,-999,0,0.00
2013-5-29,87,76,64,-100,-100,-100,0,0,100,0.00,40.00,0,-999,0,0.00
2013-5-30,76,72,68,-100,-100,-100,0,0,100,0.00,40.00,0,-999,0,0.00
2013-5-31,89,83,74,-100,-100,-100,0,0,100,0.00,40.00,0,-999,0,0.00
2013-6-1,87,78,70,-100,-100,-100,0,0,100,0.00,40.00,0,-999,0,0.00
2013-6-2,86,78,70,-100,-100,-100,0,0,100,0.00,40.00,0,-999,0,0.00
2013-6-3,75,71,66,-100,-100,-100,0,0,100,0.00,40.00,0,-999,0,0.00
2013-6-4,75,65,55,-100,-100,-100,0,0,100,0.00,40.00,0,-999,0,0.00
2013-6-5,76,62,46,-100,-100,-100,0,0,100,0.00,40.00,0,-999,0,0.00
2013-6-6,74,64,53,-100,-100,-100,0,0,100,0.00,40.00,0,-999,0,0.00
2013-6-7,72,68,64,-100,-100,-100,0,0,100,0.00,40.00,0,-999,0,0.00
2013-6-8,75,68,61,-100,-100,-100,0,0,100,0.00,40.00,0,-999,0,0.00
2013-6-9,80,69,58,-100,-100,-100,0,0,100,0.00,40.00,0,-999,0,0.00
2013-6-10,77,70,63,-100,-100,-100,0,0,100,0.00,40.00,0,-999,0,0.00
2013-6-11,82,75,70,-100,-100,-100,0,0,100,0.00,40.00,0,-999,0,0.00
2013-6-12,82,74,65,-100,-100,-100,0,0,100,0.00,40.00,0,-999,0,0.00
2013-6-13,84,71,66,-100,-100,-100,0,0,100,0.00,40.00,0,-999,0,0.00
2013-6-14,72,61,55,-100,-100,-100,0,0,100,0.00,40.00,0,-999,0,0.00
2013-6-15,81,66,54,-100,-100,-100,0,0,100,0.00,40.00,0,-999,0,0.00
2013-6-16,83,68,57,-100,-100,-100,0,0,100,0.00,40.00,0,-999,0,0.00
2013-6-17,84,72,62,-100,-100,-100,0,0,100,0.00,40.00,0,-999,0,0.00
2013-6-18,78,68,61,-100,-100,-100,0,0,100,0.00,40.00,0,-999,0,0.00
2013-6-19,74,66,57,-100,-100,-100,0,0,100,0.00,40.00,0,-999,0,0.00
2013-6-20,77,64,51,-100,-100,-100,0,0,100,0.00,40.00,0,-999,0,0.00
2013-6-22,84,75,61,-100,-100,-100,0,0,100,0.00,40.00,0,-999,0,0.00
2013-6-23,83,71,58,-100,-100,-100,0,0,100,0.00,40.00,0,-999,0,0.00
2013-6-24,89,80,73,-100,-100,-100,0,0,100,0.00,40.00,0,-999,0,0.00
2013-6-25,91,79,68,-100,-100,-100,0,0,100,0.00,40.00,0,-999,0,0.00
2013-6-26,89,80,70,-100,-100,-100,0,0,100,0.00,40.00,0,-999,0,0.00
2013-6-27,86,78,69,-100,-100,-100,0,0,100,0.00,40.00,0,-999,0,0.00
2013-6-28,87,78,70,-100,-100,-100,0,0,100,0.00,40.00,0,-999,0,0.00
2013-6-29,83,75,68,-100,-100,-100,0,0,100,0.00,40.00,0,-999,0,0.00
2013-6-30,81,75,69,-100,-100,-100,0,0,100,0.00,40.00,0,-999,0,0.00
2013-7-1,81,74,73,-100,-100,-100,0,0,100,0.00,40.00,0,-999,0,0.00
2013-7-2,83,76,72,-100,-100,-100,0,0,100,0.00,40.00,0,-999,0,0.00
2013-7-3,86,75,69,-100,-100,-100,0,0,100,0.00,40.00,0,-999,0,0.00
2013-7-4,87,79,71,-100,-100,-100,0,0,100,0.00,40.00,0,-999,0,0.00
2013-7-5,88,87,85,-100,-100,-100,0,0,100,0.00,40.00,0,-999,0,0.00
2013-7-6,91,82,77,-100,-100,-100,0,0,100,0.00,40.00,0,-999,0,0.00
2013-7-7,91,84,76,-100,-100,-100,0,0,100,0.00,40.00,0,-999,0,0.00
2013-7-8,78,74,71,-100,-100,-100,0,0,100,0.00,40.00,0,-999,0,0.00
2013-7-9,81,81,81,-100,-100,-100,0,0,100,0.00,40.00,0,-999,0,0.00
2013-7-10,81,81,81,-100,-100,-100,0,0,100,0.00,40.00,0,-999,0,0.00
2013-7-12,75,72,70,-100,-100,-100,0,0,100,0.00,40.00,0,-999,0,0.00
2013-7-13,86,77,70,-100,-100,-100,0,0,100,0.00,40.00,0,-999,0,0.00
2013-7-14,88,79,74,-100,-100,-100,0,0,100,0.00,40.00,0,-999,0,0.00
2013-7-15,91,79,71,-100,-100,-100,0,0,100,0.00,40.00,0,-999,0,0.00
2013-7-16,92,81,72,-100,-100,-100,0,0,100,0.00,40.00,0,-999,0,0.00
2013-7-17,94,78,68,-100,-100,-100,0,0,100,0.00,40.00,0,-999,0,0.00
2013-7-18,93,88,80,-100,-100,-100,0,0,100,0.00,40.00,0,-999,0,0.00
2013-7-19,93,85,78,-100,-100,-100,0,0,100,0.00,40.00,0,-999,0,0.00
2013-7-20,90,84,80,-100,-100,-100,0,0,100,0.00,40.00,0,-999,0,0.00
2013-7-21,89,78,70,-100,-100,-100,0,0,100,0.00,40.00,0,-999,0,0.00
2013-7-22,86,78,71,-100,-100,-100,0,0,100,0.00,40.00,0,-999,0,0.00
2013-7-23,86,78,72,-100,-100,-100,0,0,100,0.00,40.00,0,-999,0,0.00
2013-7-24,86,77,67,-100,-100,-100,0,0,100,0.00,40.00,0,-999,0,0.00
2013-7-25,70,67,63,-100,-100,-100,0,0,100,0.00,40.00,0,-999,0,0.00
2013-7-26,81,71,60,-100,-100,-100,0,0,100,0.00,40.00,0,-999,0,0.00
2013-7-27,83,71,59,-100,-100,-100,0,0,100,0.00,40.00,0,-999,0,0.00
2013-7-28,81,72,62,-100,-100,-100,0,0,100,0.00,40.00,0,-999,0,0.00
2013-7-29,83,71,62,-100,-100,-100,0,0,100,0.00,40.00,0,-999,0,0.00
2013-7-30,81,68,54,-100,-100,-100,0,0,100,0.00,40.00,0,-999,0,0.00
2013-7-31,82,70,55,-100,-100,-100,0,0,100,0.00,40.00,0,-999,0,0.00
2013-8-1,74,68,64,-100,-100,-100,0,0,100,0.00,40.00,0,-999,0,0.00
2013-8-2,83,73,63,-100,-100,-100,0,0,100,0.00,40.00,0,-999,0,0.00
2013-8-3,80,71,64,-100,-100,-100,0,0,100,0.00,40.00,0,-999,0,0.00
2013-8-4,80,69,59,-100,-100,-100,0,0,100,0.00,40.00,0,-999,0,0.00
2013-8-5,78,65,53,-100,-100,-100,0,0,100,0.00,40.00,0,-999,0,0.00
2013-8-6,76,64,53,-100,-100,-100,0,0,100,0.00,40.00,0,-999,0,0.00
2013-8-7,74,70,64,-100,-100,-100,0,0,100,0.00,40.00,0,-999,0,0.00
2013-8-8,84,77,73,-100,-100,-100,0,0,100,0.00,40.00,0,-999,0,0.00
2013-8-9,87,79,75,-100,-100,-100,0,0,100,0.00,40.00,0,-999,0,0.00
2013-8-10,82,76,67,-100,-100,-100,0,0,100,0.00,40.00,0,-999,0,0.00
2013-8-11,83,71,61,-100,-100,-100,0,0,100,0.00,40.00,0,-999,0,0.00
2013-8-12,85,73,63,-100,-100,-100,0,0,100,0.00,40.00,0,-999,0,0.00
2013-8-13,81,74,69,-100,-100,-100,0,0,100,0.00,40.00,0,-999,0,0.00
2013-8-14,74,67,55,-100,-100,-100,0,0,100,0.00,40.00,0,-999,0,0.00
2013-8-15,75,62,49,-100,-100,-100,0,0,100,0.00,40.00,0,-999,0,0.00
2013-8-16,78,64,48,-100,-100,-100,0,0,100,0.00,40.00,0,-999,0,0.00
2013-8-17,78,65,51,-100,-100,-100,0,0,100,0.00,40.00,0,-999,0,0.00
2013-8-18,75,67,60,-100,-100,-100,0,0,100,0.00,40.00,0,-999,0,0.00
2013-8-19,76,67,59,-100,-100,-100,0,0,100,0.00,40.00,0,-999,0,0.00
2013-8-20,83,72,60,-100,-100,-100,0,0,100,0.00,40.00,0,-999,0,0.00
2013-8-21,86,74,61,-100,-100,-100,0,0,100,0.00,40.00,0,-999,0,0.00
2013-8-22,83,75,69,-100,-100,-100,0,0,100,0.00,40.00,0,-999,0,0.00
2013-8-23,79,70,65,-100,-100,-100,0,0,100,0.00,40.00,0,-999,0,0.00
2013-8-24,78,67,56,-100,-100,-100,0,0,100,0.00,40.00,0,-999,0,0.00
2013-8-25,79,63,47,-100,-100,-100,0,0,100,0.00,40.00,0,-999,0,0.00
2013-8-26,82,74,56,-100,-100,-100,0,0,100,0.00,40.00,0,-999,0,0.00
2013-8-27,86,77,71,-100,-100,-100,0,0,100,0.00,40.00,0,-999,0,0.00
2013-8-28,75,72,70,-100,-100,-100,0,0,100,0.00,40.00,0,-999,0,0.00
2013-8-29,78,72,64,-100,-100,-100,0,0,100,0.00,40.00,0,-999,0,0.00
2013-8-30,79,71,63,-100,-100,-100,0,0,100,0.00,40.00,0,-999,0,0.00
2013-8-31,86,77,69,-100,-100,-100,0,0,100,0.00,40.00,0,-999,0,0.00
2013-9-1,87,79,73,-100,-100,-100,0,0,100,0.00,40.00,0,-999,0,0.00
2013-9-2,81,75,70,-100,-100,-100,0,0,100,0.00,40.00,0,-999,0,0.00
2013-9-3,84,75,63,-100,-100,-100,0,0,100,0.00,40.00,0,-999,0,0.00
2013-9-4,79,67,57,-100,-100,-100,0,0,100,0.00,40.00,0,-999,0,0.00
2013-9-5,81,70,57,-100,-100,-100,0,0,100,0.00,40.00,0,-999,0,0.00
2013-9-6,73,60,51,-100,-100,-100,0,0,100,0.00,40.00,0,-999,0,0.00
2013-9-7,76,61,45,-100,-100,-100,0,0,100,0.00,40.00,0,-999,0,0.00
2013-9-8,84,73,58,-100,-100,-100,0,0,100,0.00,40.00,0,-999,0,0.00
2013-9-9,74,64,54,-100,-100,-100,0,0,100,0.00,40.00,0,-999,0,0.00
2013-9-10,85,74,61,-100,-100,-100,0,0,100,0.00,40.00,0,-999,0,0.00
2013-9-11,89,79,69,-100,-100,-100,0,0,100,0.00,40.00,0,-999,0,0.00
2013-9-12,87,78,71,-100,-100,-100,0,0,100,0.00,40.00,0,-999,0,0.00
2013-9-13,75,69,57,-100,-100,-100,0,0,100,0.00,40.00,0,-999,0,0.00
2013-9-14,67,57,48,-100,-100,-100,0,0,100,0.00,40.00,0,-999,0,0.00
2013-9-15,71,52,38,-100,-100,-100,0,0,100,0.00,40.00,0,-999,0,0.00
2013-9-16,71,64,54,-100,-100,-100,0,0,100,0.00,40.00,0,-999,0,0.00
2013-9-17,65,55,43,-100,-100,-100,0,0,100,0.00,40.00,0,-999,0,0.00
2013-9-18,46,39,36,-100,-100,-100,0,0,100,0.00,40.00,0,-999,0,0.00
2013-9-19,72,56,39,-100,-100,-100,0,0,100,0.00,40.00,0,-999,0,0.00
2013-9-20,75,62,43,-100,-100,-100,0,0,100,0.00,40.00,0,-999,0,0.00
2013-9-21,78,69,48,-100,-100,-100,0,0,100,0.00,40.00,0,-999,0,0.00
2013-9-22,71,63,48,-100,-100,-100,0,0,100,0.00,40.00,0,-999,0,0.00
2013-9-23,65,52,39,-100,-100,-100,0,0,100,0.00,40.00,0,-999,0,0.00
2013-9-24,68,51,37,-100,-100,-100,0,0,100,0.00,40.00,0,-999,0,0.00
2013-9-25,74,58,41,-100,-100,-100,0,0,100,0.00,40.00,0,-999,0,0.00
2013-9-26,72,58,44,-100,-100,-100,0,0,100,0.00,40.00,0,-999,0,0.00
2013-9-27,68,58,45,-100,-100,-100,0,0,100,0.00,40.00,0,-999,0,0.00
2013-9-28,71,61,51,-100,-100,-100,0,0,100,0.00,40.00,0,-999,0,0.00
2013-9-29,71,56,45,-100,-100,-100,0,0,100,0.00,40.00,0,-999,0,0.00
2013-9-30,72,56,42,-100,-100,-100,0,0,100,0.00,40.00,0,-999,0,0.00
2013-10-1,66,61,57,-100,-100,-100,0,0,100,0.00,40.00,0,-999,0,0.00
2013-10-2,82,69,51,-100,-100,-100,0,0,100,0.00,40.00,0,-999,0,0.00
2013-10-3,80,67,54,-100,-100,-100,0,0,100,0.00,40.00,0,-999,0,0.00
2013-10-4,83,70,55,-100,-100,-100,0,0,100,0.00,40.00,0,-999,0,0.00
2013-10-5,82,68,58,-100,-100,-100,0,0,100,0.00,40.00,0,-999,0,0.00
2013-10-6,84,73,67,-100,-100,-100,0,0,100,0.00,40.00,0,-999,0,0.00
2013-10-7,79,69,60,-100,-100,-100,0,0,100,0.00,40.00,0,-999,0,0.00
2013-10-8,64,55,49,-100,-100,-100,0,0,100,0.00,40.00,0,-999,0,0.00
2013-10-9,62,56,50,-100,-100,-100,0,0,100,0.00,40.00,0,-999,0,0.00
2013-10-10,63,60,56,-100,-100,-100,0,0,100,0.00,40.00,0,-999,0,0.00
2013-10-11,65,63,62,-100,-100,-100,0,0,100,0.00,40.00,0,-999,0,0.00
2013-10-12,67,62,60,-100,-100,-100,0,0,100,0.00,40.00,0,-999,0,0.00
2013-10-13,66,61,54,-100,-100,-100,0,0,100,0.00,40.00,0,-999,0,0.00
2013-10-14,68,56,48,-100,-100,-100,0,0,100,0.00,40.00,0,-999,0,0.00
2013-10-15,71,56,44,-100,-100,-100,0,0,100,0.00,40.00,0,-999,0,0.00
2013-10-16,70,62,55,-100,-100,-100,0,0,100,0.00,40.00,0,-999,0,0.00
2013-10-17,75,66,60,-100,-100,-100,0,0,100,0.00,40.00,0,-999,0,0.00
2013-10-18,67,59,45,-100,-100,-100,0,0,100,0.00,40.00,0,-999,0,0.00
2013-10-19,63,51,39,-100,-100,-100,0,0,100,0.00,40.00,0,-999,0,0.00
2013-10-20,62,52,38,-100,-100,-100,0,0,100,0.00,40.00,0,-999,0,0.00
2013-10-21,66,49,32,-100,-100,-100,0,0,100,0.00,40.00,0,-999,0,0.00
2013-10-22,69,58,43,-100,-100,-100,0,0,100,0.00,40.00,0,-999,0,0.00
2013-10-23,52,46,41,-100,-100,-100,0,0,100,0.00,40.00,0,-999,0,0.00
2013-10-24,52,42,33,-100,-100,-100,0,0,100,0.00,40.00,0,-999,0,0.00
2013-10-25,54,42,30,-100,-100,-100,0,0,100,0.00,40.00,0,-999,0,0.00
2013-10-26,57,43,27,-100,-100,-100,0,0,100,0.00,40.00,0,-999,0,0.00
2013-10-27,58,49,33,-100,-100,-100,0,0,100,0.00,40.00,0,-999,0,0.00
2013-10-28,65,44,28,-100,-100,-100,0,0,100,0.00,40.00,0,-999,0,0.00
2013-10-29,63,49,40,-100,-100,-100,0,0,100,0.00,40.00,0,-999,0,0.00
2013-10-30,57,47,39,-100,-100,-100,0,0,100,0.00,40.00,0,-999,0,0.00
2013-10-31,71,58,43,-100,-100,-100,0,0,100,0.00,40.00,0,-999,0,0.00
2013-11-1,71,65,59,-100,-100,-100,0,0,100,0.00,40.00,0,-999,0,0.00
2013-11-2,69,60,51,-100,-100,-100,0,0,100,0.00,40.00,0,-999,0,0.00
2013-11-3,54,46,36,-100,-100,-100,0,0,100,0.00,40.00,0,-999,0,0.00
2013-11-4,49,38,31,-100,-100,-100,0,0,100,0.00,40.00,0,-999,0,0.00
2013-11-5,58,45,33,-100,-100,-100,0,0,100,0.00,40.00,0,-999,0,0.00
2013-11-6,64,50,31,-100,-100,-100,0,0,100,0.00,40.00,0,-999,0,0.00
2013-11-7,62,57,42,-100,-100,-100,0,0,100,0.00,40.00,0,-999,0,0.00
2013-11-8,50,43,34,-100,-100,-100,0,0,100,0.00,40.00,0,-999,0,0.00
2013-11-9,51,40,26,-100,-100,-100,0,0,100,0.00,40.00,0,-999,0,0.00
2013-11-10,62,53,44,-100,-100,-100,0,0,100,0.00,40.00,0,-999,0,0.00
2013-11-11,54,46,30,-100,-100,-100,0,0,100,0.00,40.00,0,-999,0,0.00
2013-11-12,50,40,32,-100,-100,-100,0,0,100,0.00,40.00,0,-999,0,0.00
2013-11-13,41,30,22,-100,-100,-100,0,0,100,0.00,40.00,0,-999,0,0.00
2013-11-14,55,44,23,-100,-100,-100,0,0,100,0.00,40.00,0,-999,0,0.00
2013-11-15,58,45,31,-100,-100,-100,0,0,100,0.00,40.00,0,-999,0,0.00
2013-11-16,51,45,34,-100,-100,-100,0,0,100,0.00,40.00,0,-999,0,0.00
2013-11-17,66,55,43,-100,-100,-100,0,0,100,0.00,40.00,0,-999,0,0.00
2013-11-18,67,60,48,-100,-100,-100,0,0,100,0.00,40.00,0,-999,0,0.00
2013-11-19,51,44,28,-100,-100,-100,0,0,100,0.00,40.00,0,-999,0,0.00
2013-11-20,46,34,26,-100,-100,-100,0,0,100,0.00,40.00,0,-999,0,0.00
2013-11-21,55,40,26,-100,-100,-100,0,0,100,0.00,40.00,0,-999,0,0.00
2013-11-22,59,52,41,-100,-100,-100,0,0,100,0.00,40.00,0,-999,0,0.00
2013-11-23,53,45,35,-100,-100,-100,0,0,100,0.00,40.00,0,-999,0,0.00
2013-11-24,33,27,18,-100,-100,-100,0,0,100,0.00,40.00,0,-999,0,0.00
2013-11-25,35,26,16,-100,-100,-100,0,0,100,0.00,40.00,0,-999,0,0.00
2013-11-26,57,41,34,-100,-100,-100,0,0,100,0.00,40.00,0,-999,0,0.00
2013-11-27,62,46,34,-100,-100,-100,0,0,100,0.00,40.00,0,-999,0,0.00
2013-11-28,38,31,26,-100,-100,-100,0,0,100,0.00,40.00,0,-999,0,0.00
2013-11-29,42,31,22,-100,-100,-100,0,0,100,0.00,40.00,0,-999,0,0.00
2013-11-30,42,32,23,-100,-100,-100,0,0,100,0.00,40.00,0,-999,0,0.00
2013-12-1,51,37,26,-100,-100,-100,0,0,100,0.00,40.00,0,-999,0,0.00
2013-12-2,51,34,26,-100,-100,-100,0,0,100,0.00,40.00,0,-999,0,0.00
2013-12-3,56,39,26,-100,-100,-100,0,0,100,0.00,40.00,0,-999,0,0.00
2013-12-4,57,45,30,-100,-100,-100,0,0,100,0.00,40.00,0,-999,0,0.00
2013-12-5,60,55,49,-100,-100,-100,0,0,100,0.00,40.00,0,-999,0,0.00
2013-12-6,62,52,40,-100,-100,-100,0,0,100,0.00,40.00,0,-999,0,0.00
2013-12-7,42,37,28,-100,-100,-100,0,0,100,0.00,40.00,0,-999,0,0.00
2013-12-8,33,29,24,-100,-100,-100,0,0,100,0.00,40.00,0,-999,0,0.00
2013-12-9,38,36,32,-100,-100,-100,0,0,100,0.00,40.00,0,-999,0,0.00
2013-12-10,35,32,28,-100,-100,-100,0,0,100,0.00,40.00,0,-999,0,0.00
2013-12-11,38,28,20,-100,-100,-100,0,0,100,0.00,40.00,0,-999,0,0.00
2013-12-12,29,23,16,-100,-100,-100,0,0,100,0.00,40.00,0,-999,0,0.00
2013-12-13,40,32,20,-100,-100,-100,0,0,100,0.00,40.00,0,-999,0,0.00
2013-12-14,52,36,27,-100,-100,-100,0,0,100,0.00,40.00,0,-999,0,0.00
2013-12-15,55,41,33,-100,-100,-100,0,0,100,0.00,40.00,0,-999,0,0.00
2013-12-16,36,31,25,-100,-100,-100,0,0,100,0.00,40.00,0,-999,0,0.00
2013-12-17,43,34,28,-100,-100,-100,0,0,100,0.00,40.00,0,-999,0,0.00
2013-12-18,39,31,24,-100,-100,-100,0,0,100,0.00,40.00,0,-999,0,0.00
2013-12-19,52,38,21,-100,-100,-100,0,0,100,0.00,40.00,0,-999,0,0.00
2013-12-20,56,49,44,-100,-100,-100,0,0,100,0.00,40.00,0,-999,0,0.00
2013-12-21,67,59,50,-100,-100,-100,0,0,100,0.00,40.00,0,-999,0,0.00
2013-12-22,66,62,57,-100,-100,-100,0,0,100,0.00,40.00,0,-999,0,0.00
2013-12-23,64,57,43,-100,-100,-100,0,0,100,0.00,40.00,0,-999,0,0.00
2013-12-24,42,37,27,-100,-100,-100,0,0,100,0.00,40.00,0,-999,0,0.00
2013-12-25,32,25,19,-100,-100,-100,0,0,100,0.00,40.00,0,-999,0,0.00
2013-12-26,43,28,17,-100,-100,-100,0,0,100,0.00,40.00,0,-999,0,0.00
2013-12-27,45,29,19,-100,-100,-100,0,0,100,0.00,40.00,0,-999,0,0.00
2013-12-28,54,42,23,-100,-100,-100,0,0,100,0.00,40.00,0,-999,0,0.00
2013-12-29,59,46,41,-100,-100,-100,0,0,100,0.00,40.00,0,-999,0,0.00
2013-12-30,48,39,30,-100,-100,-100,0,0,100,0.00,40.00,0,-999,0,0.00
2013-12-31,41,32,26,-100,-100,-100,0,0,100,0.00,40.00,0,-999,0,0.00
2014-1-1,43,31,21,-100,-100,-100,0,0,100,0.00,40.00,0,-999,0,0.00
2014-1-2,36,32,27,-100,-100,-100,0,0,100,0.00,40.00,0,-999,0,0.00